This is the latest recevied weather packets stored in our database for station/object NA4DL. If no packets are shown the sender has not sent any weather packets the latest 10 day(s).
| Time | Temp. | Humidity | Pressure | Rain* | Wind** | Luminosity | Snow |
|---|---|---|---|---|---|---|---|
| 1777254019 | 18.89° C | 75% | 1012.2 hPa | 0 mm | - | 0 W/m² | - |
| 1777244440 | 28.89° C | 45% | 1011.1 hPa | 0 mm | - | 157 W/m² | - |
| 1777236618 | 27.78° C | 48% | 1011.3 hPa | 0 mm | - | 616 W/m² | - |
| 1777233039 | 27.78° C | 49% | 1011.7 hPa | 0 mm | - | 246 W/m² | - |
| 1777232419 | 28.33° C | 49% | 1011.9 hPa | 0 mm | - | 592 W/m² | - |
| 1777231819 | 28.33° C | 49% | 1012 hPa | 0 mm | - | 866 W/m² | - |
| 1777222219 | 24.44° C | 60% | 1013.2 hPa | 0 mm | - | 167 W/m² | - |
| 1777221619 | 24.44° C | 63% | 1013.3 hPa | 0 mm | - | 165 W/m² | - |
| 1777219252 | 23.33° C | 69% | 1013.4 hPa | 0 mm | - | 124 W/m² | - |
| 1777217417 | 23.33° C | 73% | 1013.5 hPa | 0 mm | - | 62 W/m² | - |
| 1777215038 | 22.22° C | 79% | 1013.4 hPa | 0 mm | - | 48 W/m² | - |
| 1777213818 | 21.11° C | 82% | 1013.3 hPa | 0 mm | - | 39 W/m² | - |
| 1777206618 | 12.78° C | 99% | 1012.1 hPa | 0 mm | - | 23 W/m² | - |
| 1777200020 | 12.22° C | 99% | 1011.8 hPa | 0 mm | - | 0 W/m² | - |
| 1777198220 | 12.22° C | 99% | 1011.6 hPa | 0 mm | - | 0 W/m² | - |
| 1777197620 | 12.22° C | 99% | 1011.6 hPa | 0 mm | - | 0 W/m² | - |
| 1777197020 | 12.22° C | 99% | 1011.5 hPa | 0 mm | - | 0 W/m² | - |
| 1777196421 | 12.22° C | 99% | 1011.5 hPa | 0 mm | - | 0 W/m² | - |
| 1777195821 | 12.78° C | 99% | 1011.5 hPa | 0 mm | - | 0 W/m² | - |
| 1777191022 | 13.33° C | 99% | 1010.5 hPa | 0 mm | - | 0 W/m² | - |
| 1777190422 | 13.33° C | 99% | 1010.4 hPa | 0 mm | - | 0 W/m² | - |
| 1777187443 | 13.33° C | 99% | 1010.2 hPa | 0 mm | - | 0 W/m² | - |
| 1777186223 | 13.89° C | 99% | 1010.4 hPa | 0 mm | - | 0 W/m² | - |
| 1777185024 | 13.89° C | 99% | 1010.5 hPa | 0 mm | - | 0 W/m² | - |
| 1777184424 | 13.89° C | 99% | 1010.7 hPa | 0 mm | - | 0 W/m² | - |
* Rain latest hour (hover to see other rain measurements)
** Current wind speed in m/s (hover to see current wind gust speed)